Time;durP1;ratioP1;P1;durP2;ratioP2;P2;SDS_P1;SDS_P2;PMS_P1;PMS_P2;Temp;Humidity;BMP_temperature;BMP_pressure;BME280_temperature;BME280_humidity;BME280_pressure;Samples;Min_cycle;Max_cycle;Signal;HPM_P1;HPM_P2
2022/11/03 00:02:30;;;;;;;;;;;;;;;10.43;74.5293;101296.5;;;;-75
2022/11/03 00:07:30;;;;;;;;;;;;;;;10.45;74.76465;101275.8;;;;-75
2022/11/03 00:12:30;;;;;;;;;;;;;;;10.39;74.76465;101271.1;;;;-74
2022/11/03 00:17:30;;;;;;;;;;;;;;;10.42;75.34766;101265.7;;;;-75
2022/11/03 00:22:32;;;;;;;;;;;;;;;10.4;75.58789;101261.1;;;;-77
2022/11/03 00:27:30;;;;;;;;;;;;;;;10.37;75.38379;101263.1;;;;-75
2022/11/03 00:29:08;;;;;;;8.6;1.6;;;;;;;;;;;;;-74
2022/11/03 00:32:30;;;;;;;;;;;;;;;10.4;75.50879;101256.1;;;;-75
2022/11/03 00:37:30;;;;;;;;;;;;;;;10.31;75.44824;101260.8;;;;-75
2022/11/03 00:42:30;;;;;;;;;;;;;;;10.32;75.4834;101267;;;;-74
2022/11/03 00:48:28;;;;;;;;;;;;;;;10.33;75.20996;101264.6;;;;-75
2022/11/03 00:52:30;;;;;;;;;;;;;;;10.28;75.12305;101261.4;;;;-75
2022/11/03 00:57:30;;;;;;;;;;;;;;;10.28;75.50977;101249.9;;;;-75
2022/11/03 00:59:06;;;;;;;10.8;1.9;;;;;;;;;;;;;-75
2022/11/03 01:02:30;;;;;;;;;;;;;;;10.28;75.36621;101253.4;;;;-75
2022/11/03 01:07:30;;;;;;;;;;;;;;;10.28;75.7207;101243.8;;;;-75
2022/11/03 01:12:30;;;;;;;;;;;;;;;10.3;75.60352;101244.7;;;;-75
2022/11/03 01:17:31;;;;;;;;;;;;;;;10.3;76.30078;101220.5;;;;-74
2022/11/03 01:22:30;;;;;;;;;;;;;;;10.28;76.50684;101206.3;;;;-75
2022/11/03 01:27:30;;;;;;;;;;;;;;;10.29;76.10938;101200.6;;;;-74
2022/11/03 01:29:06;;;;;;;9.6;1.8;;;;;;;;;;;;;-74
2022/11/03 01:32:30;;;;;;;;;;;;;;;10.23;76.03418;101191.7;;;;-74
2022/11/03 01:37:31;;;;;;;;;;;;;;;10.28;76.54004;101187.3;;;;-75
2022/11/03 01:42:30;;;;;;;;;;;;;;;10.25;75.95801;101190.9;;;;-75
2022/11/03 01:47:33;;;;;;;;;;;;;;;10.25;76.3916;101184.8;;;;-75
2022/11/03 01:52:35;;;;;;;;;;;;;;;10.23;76.47656;101186.6;;;;-73
2022/11/03 01:57:36;;;;;;;;;;;;;;;10.22;76.1875;101181.3;;;;-74
2022/11/03 01:59:07;;;;;;;6.8;1.5;;;;;;;;;;;;;-75
2022/11/03 02:02:31;;;;;;;;;;;;;;;10.2;76.42773;101168.1;;;;-75
2022/11/03 02:07:34;;;;;;;;;;;;;;;10.2;76.49414;101170.9;;;;-74
2022/11/03 02:12:31;;;;;;;;;;;;;;;10.21;76.48242;101156.2;;;;-75
2022/11/03 02:17:31;;;;;;;;;;;;;;;10.24;76.50977;101153.3;;;;-74
2022/11/03 02:22:36;;;;;;;;;;;;;;;10.27;76.63965;101143.7;;;;-75
2022/11/03 02:27:31;;;;;;;;;;;;;;;10.34;76.46094;101141.2;;;;-76
2022/11/03 02:29:09;;;;;;;7.2;1.6;;;;;;;;;;;;;-74
2022/11/03 02:32:32;;;;;;;;;;;;;;;10.37;76.86719;101127.1;;;;-76
2022/11/03 02:37:32;;;;;;;;;;;;;;;10.42;76.35547;101115.4;;;;-75
2022/11/03 02:42:30;;;;;;;;;;;;;;;10.42;76.62109;101114.3;;;;-75
2022/11/03 02:47:32;;;;;;;;;;;;;;;10.44;76.90039;101095.2;;;;-75
2022/11/03 02:52:41;;;;;;;;;;;;;;;10.45;76.62598;101092.5;;;;-74
2022/11/03 02:57:33;;;;;;;;;;;;;;;10.52;77.30273;101086.7;;;;-75
2022/11/03 02:59:09;;;;;;;8.7;1.9;;;;;;;;;;;;;-74
2022/11/03 03:02:33;;;;;;;;;;;;;;;10.52;76.76953;101068.3;;;;-75
2022/11/03 03:07:33;;;;;;;;;;;;;;;10.56;77.13184;101057.1;;;;-75
2022/11/03 03:12:30;;;;;;;;;;;;;;;10.56;76.7666;101047.4;;;;-75
2022/11/03 03:17:33;;;;;;;;;;;;;;;10.58;77.12402;101051.5;;;;-73
2022/11/03 03:22:34;;;;;;;;;;;;;;;10.59;76.81543;101037.3;;;;-74
2022/11/03 03:27:32;;;;;;;;;;;;;;;10.56;76.97559;101032.6;;;;-75
2022/11/03 03:29:10;;;;;;;6.6;1.7;;;;;;;;;;;;;-75
2022/11/03 03:32:34;;;;;;;;;;;;;;;10.53;77.0166;101032.2;;;;-73
2022/11/03 03:37:31;;;;;;;;;;;;;;;10.48;76.89648;101023.1;;;;-74
2022/11/03 03:42:31;;;;;;;;;;;;;;;10.48;77.36133;101026.1;;;;-76
2022/11/03 03:47:32;;;;;;;;;;;;;;;10.45;77.8877;101026.8;;;;-74
2022/11/03 03:52:30;;;;;;;;;;;;;;;10.48;77.58301;101019.4;;;;-75
2022/11/03 03:57:31;;;;;;;;;;;;;;;10.43;77.57422;101019;;;;-74
2022/11/03 03:59:09;;;;;;;10.5;1.8;;;;;;;;;;;;;-74
2022/11/03 04:02:30;;;;;;;;;;;;;;;10.44;77.71875;101026.5;;;;-75
2022/11/03 04:22:32;;;;;;;;;;;;;;;10.48;77.95898;101006.7;;;;-75
2022/11/03 04:27:35;;;;;;;;;;;;;;;10.47;77.94434;101007.5;;;;-74
2022/11/03 04:29:12;;;;;;;8.7;1.7;;;;;;;;;;;;;-75
2022/11/03 04:32:31;;;;;;;;;;;;;;;10.47;78.40918;100999.2;;;;-77
2022/11/03 04:37:32;;;;;;;;;;;;;;;10.48;78.18066;100987.5;;;;-75
2022/11/03 04:42:33;;;;;;;;;;;;;;;10.49;78.44727;100982.9;;;;-75
2022/11/03 04:47:33;;;;;;;;;;;;;;;10.52;78.90625;100977.8;;;;-75
2022/11/03 04:52:32;;;;;;;;;;;;;;;10.57;78.60645;100989.2;;;;-74
2022/11/03 04:57:32;;;;;;;;;;;;;;;10.6;78.71094;100978.7;;;;-74
2022/11/03 04:59:13;;;;;;;5.7;1.5;;;;;;;;;;;;;-75
2022/11/03 05:02:30;;;;;;;;;;;;;;;10.58;78.75195;100979;;;;-73
2022/11/03 05:07:33;;;;;;;;;;;;;;;10.61;79.41016;100964.5;;;;-75
2022/11/03 05:12:31;;;;;;;;;;;;;;;10.58;79.20605;100958.2;;;;-75
2022/11/03 05:17:31;;;;;;;;;;;;;;;10.6;79.13184;100954.4;;;;-75
2022/11/03 05:22:32;;;;;;;;;;;;;;;10.6;79.10938;100941.3;;;;-71
2022/11/03 05:27:31;;;;;;;;;;;;;;;10.57;79.49219;100932.9;;;;-71
2022/11/03 05:29:17;;;;;;;6.8;1.6;;;;;;;;;;;;;-70
2022/11/03 05:32:31;;;;;;;;;;;;;;;10.6;79.19824;100925.3;;;;-71
2022/11/03 05:37:31;;;;;;;;;;;;;;;10.58;79.29395;100921;;;;-71
2022/11/03 05:42:41;;;;;;;;;;;;;;;10.62;79.19141;100912.2;;;;-71
2022/11/03 05:47:34;;;;;;;;;;;;;;;10.62;79.70117;100914;;;;-71
2022/11/03 05:52:31;;;;;;;;;;;;;;;10.68;79.7002;100904.4;;;;-72
2022/11/03 05:57:33;;;;;;;;;;;;;;;10.7;79.99121;100905;;;;-71
2022/11/03 05:59:14;;;;;;;7.1;1.7;;;;;;;;;;;;;-72
2022/11/03 06:02:38;;;;;;;;;;;;;;;10.72;80.02734;100901.1;;;;-71
2022/11/03 06:07:31;;;;;;;;;;;;;;;10.78;;100887.1;;;;-72
2022/11/03 06:12:33;;;;;;;;;;;;;;;10.72;79.71875;100891.1;;;;-71
2022/11/03 06:17:31;;;;;;;;;;;;;;;10.76;80.00293;100886.2;;;;-71
2022/11/03 06:22:31;;;;;;;;;;;;;;;10.76;80.38867;100884.9;;;;-71
2022/11/03 06:27:33;;;;;;;;;;;;;;;10.78;79.98438;100873.3;;;;-71
2022/11/03 06:29:17;;;;;;;8.9;1.9;;;;;;;;;;;;;-71
2022/11/03 06:32:30;;;;;;;;;;;;;;;10.78;80.02832;100867.5;;;;-72
2022/11/03 06:37:34;;;;;;;;;;;;;;;10.8;80.16406;100861.5;;;;-74
2022/11/03 06:42:34;;;;;;;;;;;;;;;10.83;80.52539;100856.9;;;;-74
2022/11/03 06:47:32;;;;;;;;;;;;;;;10.85;80.34082;100852.8;;;;-74
2022/11/03 06:52:32;;;;;;;;;;;;;;;10.84;80.18359;100849.1;;;;-75
2022/11/03 06:57:37;;;;;;;;;;;;;;;10.87;80.75293;100843.5;;;;-74
2022/11/03 06:59:16;;;;;;;5.8;1.8;;;;;;;;;;;;;-73
2022/11/03 07:02:41;;;;;;;;;;;;;;;10.92;81.09375;100838.9;;;;-75
2022/11/03 07:07:30;;;;;;;;;;;;;;;10.93;80.89648;100837.2;;;;-76
2022/11/03 07:12:30;;;;;;;;;;;;;;;10.97;81.00293;100831.9;;;;-74
2022/11/03 07:17:30;;;;;;;;;;;;;;;11.03;81.5918;100826.9;;;;-74
2022/11/03 07:22:30;;;;;;;;;;;;;;;11.06;81.6084;100831.6;;;;-74
2022/11/03 07:27:32;;;;;;;;;;;;;;;11.07;81.11133;100830.1;;;;-75
2022/11/03 07:29:22;;;;;;;5.8;1.7;;;;;;;;;;;;;-74
2022/11/03 07:32:32;;;;;;;;;;;;;;;11.1;81.20703;100817.5;;;;-76
2022/11/03 07:37:30;;;;;;;;;;;;;;;11.13;81.06641;100818.7;;;;-74
2022/11/03 07:42:30;;;;;;;;;;;;;;;11.15;81.29297;100816.9;;;;-74
2022/11/03 07:47:33;;;;;;;;;;;;;;;11.2;80.98145;100806.5;;;;-75
2022/11/03 07:52:30;;;;;;;;;;;;;;;11.25;81.27832;100798.3;;;;-75
2022/11/03 07:57:32;;;;;;;;;;;;;;;11.31;81.44336;100784.9;;;;-77
2022/11/03 07:59:19;;;;;;;7;1.6;;;;;;;;;;;;;-74
2022/11/03 08:02:33;;;;;;;;;;;;;;;11.36;81.23047;100782.6;;;;-74
2022/11/03 08:07:31;;;;;;;;;;;;;;;11.43;81.60938;100772;;;;-77
2022/11/03 08:12:32;;;;;;;;;;;;;;;11.48;81.81934;100778.9;;;;-76
2022/11/03 08:17:30;;;;;;;;;;;;;;;11.53;81.72754;100759.6;;;;-75
2022/11/03 08:22:30;;;;;;;;;;;;;;;11.58;81.39453;100768.5;;;;-75
2022/11/03 08:27:30;;;;;;;;;;;;;;;11.62;81.59082;100752.5;;;;-74
2022/11/03 08:29:18;;;;;;;8.6;1.7;;;;;;;;;;;;;-75
2022/11/03 08:32:30;;;;;;;;;;;;;;;11.68;81.56836;100748.7;;;;-74
2022/11/03 08:37:30;;;;;;;;;;;;;;;11.75;81.7373;100749.7;;;;-75
2022/11/03 08:42:30;;;;;;;;;;;;;;;11.81;81.46973;100728.7;;;;-74
2022/11/03 08:47:30;;;;;;;;;;;;;;;11.89;81.19629;100714.7;;;;-74
2022/11/03 08:52:30;;;;;;;;;;;;;;;11.96;81.43164;100700.3;;;;-74
2022/11/03 08:57:30;;;;;;;;;;;;;;;12.03;81.27734;100694.1;;;;-75
2022/11/03 08:59:18;;;;;;;9;2;;;;;;;;;;;;;-75
2022/11/03 09:02:30;;;;;;;;;;;;;;;12.12;81.47168;100699.9;;;;-74
2022/11/03 09:07:30;;;;;;;;;;;;;;;12.17;80.92676;100674;;;;-74
2022/11/03 09:12:30;;;;;;;;;;;;;;;12.19;80.9082;100664.9;;;;-76
2022/11/03 09:17:30;;;;;;;;;;;;;;;12.22;81.06836;100658.5;;;;-74
2022/11/03 09:22:30;;;;;;;;;;;;;;;12.29;80.88184;100645.4;;;;-74
2022/11/03 09:27:30;;;;;;;;;;;;;;;12.32;80.63184;100652.3;;;;-74
2022/11/03 09:29:19;;;;;;;8.6;1.6;;;;;;;;;;;;;-74
2022/11/03 09:32:30;;;;;;;;;;;;;;;12.37;80.59668;100625.4;;;;-75
2022/11/03 09:37:30;;;;;;;;;;;;;;;12.44;80.39941;100620.8;;;;-75
2022/11/03 09:42:32;;;;;;;;;;;;;;;12.53;80.18066;100608.5;;;;-74
2022/11/03 09:47:31;;;;;;;;;;;;;;;12.6;80.14941;100588.2;;;;-75
2022/11/03 09:52:30;;;;;;;;;;;;;;;12.67;80.08301;100583.9;;;;-74
2022/11/03 09:57:30;;;;;;;;;;;;;;;12.8;79.57422;100580.8;;;;-74
2022/11/03 09:59:22;;;;;;;9.2;1.6;;;;;;;;;;;;;-75
2022/11/03 10:02:31;;;;;;;;;;;;;;;12.94;79.35547;100583;;;;-74
2022/11/03 10:07:31;;;;;;;;;;;;;;;13.06;78.95215;100572.7;;;;-76
2022/11/03 10:12:39;;;;;;;;;;;;;;;13.12;78.55176;100570.1;;;;-75
2022/11/03 10:17:32;;;;;;;;;;;;;;;13.15;78.45703;100573.2;;;;-74
2022/11/03 10:22:30;;;;;;;;;;;;;;;13.19;77.87402;100569.5;;;;-75
2022/11/03 10:27:30;;;;;;;;;;;;;;;13.28;77.91309;100560;;;;-74
2022/11/03 10:29:24;;;;;;;5.1;1.4;;;;;;;;;;;;;-74
2022/11/03 10:32:40;;;;;;;;;;;;;;;13.37;77.42773;100552.6;;;;-74
2022/11/03 10:37:30;;;;;;;;;;;;;;;13.48;76.81055;100541.5;;;;-75
2022/11/03 10:42:31;;;;;;;;;;;;;;;13.51;76.39063;100526.3;;;;-71
2022/11/03 10:47:36;;;;;;;;;;;;;;;13.57;76.14648;100516.8;;;;-71
2022/11/03 10:52:32;;;;;;;;;;;;;;;13.63;75.85645;100492.9;;;;-74
2022/11/03 10:57:31;;;;;;;;;;;;;;;13.64;75.79102;100489;;;;-75
2022/11/03 10:59:24;;;;;;;7.2;1.9;;;;;;;;;;;;;-75
2022/11/03 11:02:35;;;;;;;;;;;;;;;13.7;75.57715;100477;;;;-75
2022/11/03 11:07:35;;;;;;;;;;;;;;;13.68;75.39551;100461.1;;;;-75
2022/11/03 11:12:31;;;;;;;;;;;;;;;13.7;75.25293;100451.1;;;;-75
2022/11/03 11:17:53;;;;;;;;;;;;;;;13.8;75.06836;100441.7;;;;-74
2022/11/03 11:22:30;;;;;;;;;;;;;;;13.83;74.94043;100440;;;;-73
2022/11/03 11:27:41;;;;;;;;;;;;;;;13.88;74.56934;100435.6;;;;-75
2022/11/03 11:29:40;;;;;;;5.8;1.7;;;;;;;;;;;;;-74
2022/11/03 11:32:53;;;;;;;;;;;;;;;13.89;74.23438;100439;;;;-75
2022/11/03 11:37:42;;;;;;;;;;;;;;;14.04;74.01465;100443.4;;;;-74
2022/11/03 11:42:30;;;;;;;;;;;;;;;14.24;73.64648;100427.2;;;;-74
2022/11/03 11:47:45;;;;;;;;;;;;;;;14.4;72.86816;100419;;;;-75
2022/11/03 11:52:32;;;;;;;;;;;;;;;14.63;72.21191;100408.1;;;;-74
2022/11/03 11:57:33;;;;;;;;;;;;;;;14.84;71.66309;100394;;;;-74
2022/11/03 11:59:26;;;;;;;8.1;1.8;;;;;;;;;;;;;-74
2022/11/03 12:02:32;;;;;;;;;;;;;;;14.9;70.74219;100369;;;;-74
2022/11/03 12:07:38;;;;;;;;;;;;;;;15;71.47559;100352.5;;;;-75
2022/11/03 12:12:39;;;;;;;;;;;;;;;15.01;70.24512;100335;;;;-75
2022/11/03 12:17:39;;;;;;;;;;;;;;;15.04;70.63086;100347.9;;;;-73
2022/11/03 12:22:45;;;;;;;;;;;;;;;14.9;70.47461;100326.8;;;;-75
2022/11/03 12:27:41;;;;;;;;;;;;;;;14.91;70.54297;100322.5;;;;-75
2022/11/03 12:29:27;;;;;;;7.3;1.7;;;;;;;;;;;;;-75
2022/11/03 12:32:31;;;;;;;;;;;;;;;14.87;70.62598;100320.1;;;;-75
2022/11/03 12:37:30;;;;;;;;;;;;;;;14.87;70.12109;100299.4;;;;-74
2022/11/03 12:42:30;;;;;;;;;;;;;;;14.87;70.65918;100299.6;;;;-74
2022/11/03 12:47:30;;;;;;;;;;;;;;;14.84;70.45313;100290.3;;;;-75
2022/11/03 12:52:31;;;;;;;;;;;;;;;14.85;70.57813;100282.3;;;;-74
2022/11/03 12:57:30;;;;;;;;;;;;;;;14.8;70.64941;100269;;;;-74
2022/11/03 12:59:29;;;;;;;5.7;1.3;;;;;;;;;;;;;-74
2022/11/03 13:02:31;;;;;;;;;;;;;;;14.76;70.49609;100259.1;;;;-75
2022/11/03 13:07:30;;;;;;;;;;;;;;;14.71;70.23145;100256.3;;;;-73
2022/11/03 13:12:40;;;;;;;;;;;;;;;14.69;70.59668;100245.5;;;;-75
2022/11/03 13:17:30;;;;;;;;;;;;;;;14.61;70.48438;100235.1;;;;-74
2022/11/03 13:22:30;;;;;;;;;;;;;;;14.51;71.07422;100223.6;;;;-75
2022/11/03 13:27:30;;;;;;;;;;;;;;;14.56;70.78906;100216.2;;;;-74
2022/11/03 13:29:30;;;;;;;5.4;1.3;;;;;;;;;;;;;-75
2022/11/03 13:32:31;;;;;;;;;;;;;;;14.5;70.99316;100207.3;;;;-73
2022/11/03 13:37:30;;;;;;;;;;;;;;;14.59;71.01855;100204.8;;;;-74
2022/11/03 13:42:30;;;;;;;;;;;;;;;14.68;70.66406;100190;;;;-75
2022/11/03 13:47:30;;;;;;;;;;;;;;;14.76;70.49805;100167;;;;-74
2022/11/03 13:52:30;;;;;;;;;;;;;;;14.8;70.43652;100160.3;;;;-74
2022/11/03 13:57:30;;;;;;;;;;;;;;;14.81;70.49414;100158.7;;;;-75
2022/11/03 13:59:33;;;;;;;5.8;1.5;;;;;;;;;;;;;-75
2022/11/03 14:02:30;;;;;;;;;;;;;;;14.8;70.04395;100145.9;;;;-75
2022/11/03 14:07:30;;;;;;;;;;;;;;;14.81;70.7959;100151.1;;;;-75
2022/11/03 14:12:36;;;;;;;;;;;;;;;14.74;70.41504;100146.8;;;;-75
2022/11/03 14:17:35;;;;;;;;;;;;;;;14.69;70.76465;100142.9;;;;-75
2022/11/03 14:22:30;;;;;;;;;;;;;;;14.67;70.99707;100124.3;;;;-74
2022/11/03 14:27:30;;;;;;;;;;;;;;;14.65;71.34082;100120.3;;;;-75
2022/11/03 14:29:34;;;;;;;5.2;1.5;;;;;;;;;;;;;-74
2022/11/03 14:32:30;;;;;;;;;;;;;;;14.61;70.76563;100113.7;;;;-74
2022/11/03 14:37:30;;;;;;;;;;;;;;;14.56;71.09082;100101.6;;;;-74
2022/11/03 14:42:30;;;;;;;;;;;;;;;14.55;71.3252;100092.6;;;;-75
2022/11/03 14:47:30;;;;;;;;;;;;;;;14.51;71.19629;100084.3;;;;-75
2022/11/03 14:52:30;;;;;;;;;;;;;;;14.45;71.57715;100073;;;;-75
2022/11/03 14:57:30;;;;;;;;;;;;;;;14.39;71.88184;100083;;;;-75
2022/11/03 14:59:36;;;;;;;5.6;1.5;;;;;;;;;;;;;-75
2022/11/03 15:02:30;;;;;;;;;;;;;;;14.37;71.78906;100075.6;;;;-74
2022/11/03 15:07:32;;;;;;;;;;;;;;;14.36;71.51758;100067.7;;;;-74
2022/11/03 15:12:30;;;;;;;;;;;;;;;14.31;71.41016;100063.6;;;;-78
2022/11/03 15:17:30;;;;;;;;;;;;;;;14.25;71.64551;100056.6;;;;-75
2022/11/03 15:22:30;;;;;;;;;;;;;;;14.19;71.79297;100049.3;;;;-75
2022/11/03 15:27:30;;;;;;;;;;;;;;;14.1;71.8125;100029.8;;;;-74
2022/11/03 15:29:38;;;;;;;5.6;1.4;;;;;;;;;;;;;-75
2022/11/03 15:32:30;;;;;;;;;;;;;;;14.08;72.14355;100012.4;;;;-74
2022/11/03 15:37:30;;;;;;;;;;;;;;;14;71.98438;100005.7;;;;-75
2022/11/03 15:42:30;;;;;;;;;;;;;;;13.98;72.31836;99982.86;;;;-74
2022/11/03 15:47:31;;;;;;;;;;;;;;;13.95;72.75977;99982.63;;;;-75
2022/11/03 15:52:30;;;;;;;;;;;;;;;13.91;72.76465;99976.52;;;;-75
2022/11/03 15:57:31;;;;;;;;;;;;;;;13.95;72.7373;99983.03;;;;-73
2022/11/03 15:59:41;;;;;;;5.3;1.5;;;;;;;;;;;;;-75
2022/11/03 16:01:55;;;;;;;;;;;;;;;13.83;72.90723;99984.66;;;;-74
2022/11/03 16:06:52;;;;;;;;;;;;;;;13.76;73.00684;99976.01;;;;-74
2022/11/03 16:11:52;;;;;;;;;;;;;;;13.69;73.19727;99975.7;;;;-74
2022/11/03 16:16:52;;;;;;;;;;;;;;;13.63;73.5;99963.38;;;;-75
2022/11/03 16:21:52;;;;;;;;;;;;;;;13.57;73.5127;99961.09;;;;-75
2022/11/03 16:26:52;;;;;;;;;;;;;;;13.51;73.88184;99952.14;;;;-74
2022/11/03 16:29:42;;;;;;;4.6;1.5;;;;;;;;;;;;;-75
2022/11/03 16:31:52;;;;;;;;;;;;;;;13.44;74.1709;99946.88;;;;-74
2022/11/03 16:36:52;;;;;;;;;;;;;;;13.36;74.63672;99936.53;;;;-75
2022/11/03 16:41:53;;;;;;;;;;;;;;;13.32;74.89844;99935.66;;;;-74
2022/11/03 16:46:52;;;;;;;;;;;;;;;13.25;74.91895;99933.67;;;;-74
2022/11/03 16:51:52;;;;;;;;;;;;;;;13.2;75.625;99938.75;;;;-73
2022/11/03 16:56:52;;;;;;;;;;;;;;;13.15;75.77148;99931.31;;;;-75
2022/11/03 16:59:45;;;;;;;3.8;1.7;;;;;;;;;;;;;-75
2022/11/03 17:01:52;;;;;;;;;;;;;;;13.1;76.2207;99929.77;;;;-74
2022/11/03 17:06:52;;;;;;;;;;;;;;;13.05;76.62305;99931.81;;;;-76
2022/11/03 17:11:52;;;;;;;;;;;;;;;13;76.99414;99938.63;;;;-74
2022/11/03 17:16:52;;;;;;;;;;;;;;;12.95;77.77539;99934.28;;;;-74
2022/11/03 17:21:52;;;;;;;;;;;;;;;12.89;76.68359;99930.73;;;;-75
2022/11/03 17:26:56;;;;;;;;;;;;;;;12.81;76.90527;99922.95;;;;-76
2022/11/03 17:29:47;;;;;;;4.8;1.9;;;;;;;;;;;;;-74
2022/11/03 17:31:53;;;;;;;;;;;;;;;12.73;77.85938;99914.91;;;;-77
2022/11/03 17:36:52;;;;;;;;;;;;;;;12.67;77.44922;99910.38;;;;-74
2022/11/03 17:41:52;;;;;;;;;;;;;;;12.63;77.75391;99905.27;;;;-76
2022/11/03 17:46:53;;;;;;;;;;;;;;;12.56;77.98535;99914.23;;;;-76
2022/11/03 17:51:55;;;;;;;;;;;;;;;12.51;78.03125;99916.98;;;;-74
2022/11/03 17:56:52;;;;;;;;;;;;;;;12.44;78.3877;99910.91;;;;-75
2022/11/03 17:59:48;;;;;;;4.6;2;;;;;;;;;;;;;-75
2022/11/03 18:01:54;;;;;;;;;;;;;;;12.4;78.6123;99904.44;;;;-75
2022/11/03 18:06:52;;;;;;;;;;;;;;;12.36;78.43945;99894.69;;;;-75
2022/11/03 18:16:53;;;;;;;;;;;;;;;12.28;79.21387;99885.72;;;;-75
2022/11/03 18:21:52;;;;;;;;;;;;;;;12.23;79.1377;99884.34;;;;-75
2022/11/03 18:26:52;;;;;;;;;;;;;;;12.18;79.27148;99883.05;;;;-75
2022/11/03 18:29:48;;;;;;;4.9;2.2;;;;;;;;;;;;;-75
2022/11/03 18:31:52;;;;;;;;;;;;;;;12.14;79.7002;99879.91;;;;-74
2022/11/03 18:36:53;;;;;;;;;;;;;;;12.11;79.94922;99873.3;;;;-75
2022/11/03 18:41:52;;;;;;;;;;;;;;;12.08;80.05371;99863.95;;;;-76
2022/11/03 18:46:54;;;;;;;;;;;;;;;12.05;80.99414;99854.02;;;;-76
2022/11/03 18:51:53;;;;;;;;;;;;;;;12.03;80.65625;99855.55;;;;-76
2022/11/03 18:56:55;;;;;;;;;;;;;;;11.99;81.31445;99840.78;;;;-76
2022/11/03 18:59:49;;;;;;;5.7;2.2;;;;;;;;;;;;;-76
2022/11/03 19:01:52;;;;;;;;;;;;;;;11.96;81.25391;99825.63;;;;-76
2022/11/03 19:06:53;;;;;;;;;;;;;;;11.94;81.30469;99827.06;;;;-76
2022/11/03 19:11:52;;;;;;;;;;;;;;;11.9;81.29785;99822.44;;;;-76
2022/11/03 19:16:53;;;;;;;;;;;;;;;11.87;81.90332;99824.2;;;;-76
2022/11/03 19:21:52;;;;;;;;;;;;;;;11.85;82.56543;99820.55;;;;-75
2022/11/03 19:26:57;;;;;;;;;;;;;;;11.85;81.63379;99825.63;;;;-77
2022/11/03 19:29:51;;;;;;;9.1;3;;;;;;;;;;;;;-76
2022/11/03 19:31:53;;;;;;;;;;;;;;;11.82;81.6377;99811.35;;;;-76
2022/11/03 19:36:53;;;;;;;;;;;;;;;11.82;82.00391;99811.75;;;;-76
2022/11/03 19:46:55;;;;;;;;;;;;;;;11.81;83.19824;99778.6;;;;-75
2022/11/03 19:51:52;;;;;;;;;;;;;;;11.8;82.36621;99774.35;;;;-75
2022/11/03 19:56:52;;;;;;;;;;;;;;;11.78;83.22754;99766.81;;;;-75
2022/11/03 19:59:57;;;;;;;6.2;3.8;;;;;;;;;;;;;-76
2022/11/03 20:01:52;;;;;;;;;;;;;;;11.77;82.42773;99759.36;;;;-75
2022/11/03 20:06:52;;;;;;;;;;;;;;;11.77;82.81543;99755.3;;;;-76
2022/11/03 20:11:53;;;;;;;;;;;;;;;11.75;82.99023;99754.3;;;;-76
2022/11/03 20:16:52;;;;;;;;;;;;;;;11.74;83.53125;99741.89;;;;-75
2022/11/03 20:21:52;;;;;;;;;;;;;;;11.74;83.2207;99741.4;;;;-76
2022/11/03 20:26:52;;;;;;;;;;;;;;;11.73;83.62793;99741.73;;;;-75
2022/11/03 20:29:52;;;;;;;8.4;4.7;;;;;;;;;;;;;-77
2022/11/03 20:31:52;;;;;;;;;;;;;;;11.74;83.53125;99745.63;;;;-76
2022/11/03 20:36:52;;;;;;;;;;;;;;;11.73;84.03809;99747.25;;;;-76
2022/11/03 20:41:55;;;;;;;;;;;;;;;11.74;84.61523;99755.43;;;;-78
2022/11/03 20:46:52;;;;;;;;;;;;;;;11.73;84.01563;99766.59;;;;-76
2022/11/03 20:51:53;;;;;;;;;;;;;;;11.72;83.96973;99750.61;;;;-76
2022/11/03 20:56:52;;;;;;;;;;;;;;;11.72;84.16895;99739.27;;;;-77
2022/11/03 20:59:54;;;;;;;8.7;4.3;;;;;;;;;;;;;-76
2022/11/03 21:01:53;;;;;;;;;;;;;;;11.72;83.81445;99743.33;;;;-76
2022/11/03 21:06:52;;;;;;;;;;;;;;;11.69;83.90918;99739.59;;;;-77
2022/11/03 21:11:54;;;;;;;;;;;;;;;11.65;84.37793;99746.21;;;;-77
2022/11/03 21:21:52;;;;;;;;;;;;;;;11.57;83.67773;99766.86;;;;-76
2022/11/03 21:26:52;;;;;;;;;;;;;;;11.52;83.77734;99787.89;;;;-76
2022/11/03 21:29:55;;;;;;;5.6;1.3;;;;;;;;;;;;;-76
2022/11/03 21:31:52;;;;;;;;;;;;;;;11.48;83.2041;99817.29;;;;-78
2022/11/03 21:36:52;;;;;;;;;;;;;;;11.41;83.37695;99817.45;;;;-76
2022/11/03 21:46:52;;;;;;;;;;;;;;;11.33;83.28516;99829.98;;;;-76
2022/11/03 21:51:52;;;;;;;;;;;;;;;11.32;83.01758;99867.31;;;;-76
2022/11/03 21:56:52;;;;;;;;;;;;;;;11.29;83.27832;99897.92;;;;-75
2022/11/03 21:59:57;;;;;;;1.7;0.6;;;;;;;;;;;;;-78
2022/11/03 22:01:53;;;;;;;;;;;;;;;11.28;82.98926;99909.87;;;;-78
2022/11/03 22:06:52;;;;;;;;;;;;;;;11.26;83.03906;99916.02;;;;-77
2022/11/03 22:11:52;;;;;;;;;;;;;;;11.23;82.85645;99934.33;;;;-80
2022/11/03 22:16:54;;;;;;;;;;;;;;;11.17;83.19922;99925.11;;;;-77
2022/11/03 22:26:58;;;;;;;;;;;;;;;11.11;83.2002;99911.48;;;;-78
2022/11/03 22:31:52;;;;;;;;;;;;;;;11.1;83.21094;99923.25;;;;-78
2022/11/03 22:36:52;;;;;;;;;;;;;;;11.07;82.7041;99916.7;;;;-77
2022/11/03 22:46:52;;;;;;;;;;;;;;;11;82.62695;99926.05;;;;-76
2022/11/03 22:51:52;;;;;;;;;;;;;;;10.98;83.03125;99934.7;;;;-78
2022/11/03 22:56:52;;;;;;;;;;;;;;;10.96;82.7832;99939.92;;;;-77
2022/11/03 22:59:58;;;;;;;1.1;0.3;;;;;;;;;;;;;-77
2022/11/03 23:01:52;;;;;;;;;;;;;;;10.93;82.60059;99955.71;;;;-78
2022/11/03 23:06:52;;;;;;;;;;;;;;;10.93;82.91211;99974.82;;;;-77
2022/11/03 23:11:52;;;;;;;;;;;;;;;10.92;83.08594;99982.05;;;;-77
2022/11/03 23:16:52;;;;;;;;;;;;;;;10.92;82.84277;99990.4;;;;-77
2022/11/03 23:21:53;;;;;;;;;;;;;;;10.9;82.44238;99999.7;;;;-78
2022/11/03 23:26:52;;;;;;;;;;;;;;;10.89;82.5293;100007.4;;;;-77
2022/11/03 23:29:59;;;;;;;3.2;0.5;;;;;;;;;;;;;-77
2022/11/03 23:31:52;;;;;;;;;;;;;;;10.89;82.81348;100020.5;;;;-78
2022/11/03 23:36:52;;;;;;;;;;;;;;;10.87;83.01074;100019.9;;;;-77
2022/11/03 23:41:53;;;;;;;;;;;;;;;10.84;83.03906;100009;;;;-78
2022/11/03 23:51:52;;;;;;;;;;;;;;;10.82;82.53809;100008.4;;;;-77
